Time;durP1;ratioP1;P1;durP2;ratioP2;P2;SDS_P1;SDS_P2;PMS_P1;PMS_P2;Temp;Humidity;BMP_temperature;BMP_pressure;BME280_temperature;BME280_humidity;BME280_pressure;Samples;Min_cycle;Max_cycle;Signal;HPM_P1;HPM_P2
2021/01/16 00:00:59;;;;;;;39.23;16.50;;;;;;;-11.57;71.48;99819.70;1721786;82;21892;-68
2021/01/16 00:03:27;;;;;;;30.20;13.98;;;;;;;-11.55;71.52;99814.17;1743016;81;21162;-68
2021/01/16 00:05:56;;;;;;;33.08;14.95;;;;;;;-11.55;71.58;99817.58;1713043;82;21146;-69
2021/01/16 00:08:24;;;;;;;33.78;14.53;;;;;;;-11.53;71.65;99821.81;1740579;82;21157;-68
2021/01/16 00:10:57;;;;;;;22.98;11.53;;;;;;;-11.50;71.70;99811.19;1731169;81;21370;-68
2021/01/16 00:13:29;;;;;;;23.02;10.60;;;;;;;-11.46;71.74;99814.61;1735308;81;22070;-68
2021/01/16 00:15:56;;;;;;;21.40;9.45;;;;;;;-11.43;71.84;99810.35;1723011;81;21111;-68
2021/01/16 00:18:26;;;;;;;16.95;8.80;;;;;;;-11.40;71.89;99804.39;1723635;81;21092;-68
2021/01/16 00:20:56;;;;;;;21.15;11.35;;;;;;;-11.37;72.00;99808.24;1724210;82;21145;-69
2021/01/16 00:23:25;;;;;;;20.80;10.90;;;;;;;-11.36;71.98;99806.11;1725624;81;21074;-68
2021/01/16 00:25:53;;;;;;;21.70;10.63;;;;;;;-11.34;72.06;99810.78;1713195;82;23039;-68
2021/01/16 00:28:28;;;;;;;22.93;11.12;;;;;;;-11.34;72.11;99806.53;1729742;81;21165;-68
2021/01/16 00:30:57;;;;;;;21.65;8.95;;;;;;;-11.33;72.19;99811.20;1734737;82;21067;-68
2021/01/16 00:33:27;;;;;;;19.25;9.28;;;;;;;-11.29;72.29;99809.06;1727136;81;21094;-68
2021/01/16 00:35:56;;;;;;;24.40;11.22;;;;;;;-11.27;72.37;99804.84;1732940;81;21186;-68
2021/01/16 00:38:24;;;;;;;19.52;9.48;;;;;;;-11.24;72.38;99806.53;1718772;81;22648;-68
2021/01/16 00:40:53;;;;;;;18.70;8.80;;;;;;;-11.25;72.38;99803.13;1729883;82;21133;-69
2021/01/16 00:43:20;;;;;;;20.60;10.63;;;;;;;-11.26;72.43;99809.93;1732070;81;21185;-68
2021/01/16 00:45:49;;;;;;;16.77;7.42;;;;;;;-11.26;72.52;99808.66;1723064;81;21074;-68
2021/01/16 00:48:20;;;;;;;24.47;12.07;;;;;;;-11.27;72.55;99804.41;1722942;83;21173;-68
2021/01/16 00:50:51;;;;;;;17.25;8.90;;;;;;;-11.26;72.62;99806.11;1723163;83;22779;-68
2021/01/16 00:53:21;;;;;;;20.70;10.45;;;;;;;-11.24;72.66;99804.83;1698644;82;21074;-68
2021/01/16 00:56:03;;;;;;;14.20;7.23;;;;;;;-11.19;72.70;99797.16;1870480;76;23196;-67
2021/01/16 00:58:33;;;;;;;21.75;10.50;;;;;;;-11.23;72.75;99796.33;1830090;77;21207;-68
2021/01/16 01:01:02;;;;;;;23.10;11.88;;;;;;;-11.21;72.78;99795.05;1827347;78;22282;-68
2021/01/16 01:03:32;;;;;;;25.40;12.13;;;;;;;-11.20;72.82;99787.81;1823534;78;21370;-67
2021/01/16 01:06:01;;;;;;;27.13;13.28;;;;;;;-11.19;72.86;99792.94;1822812;78;21048;-67
2021/01/16 01:08:30;;;;;;;21.33;11.97;;;;;;;-11.14;72.89;99795.05;1817264;78;21078;-67
2021/01/16 01:10:58;;;;;;;29.87;14.87;;;;;;;-11.13;72.94;99790.36;1829810;78;21527;-67
2021/01/16 01:13:26;;;;;;;24.90;12.30;;;;;;;-11.11;72.97;99782.28;1838561;78;21956;-67
2021/01/16 01:15:53;;;;;;;26.85;13.53;;;;;;;-11.06;72.99;99782.28;1827037;78;21124;-67
2021/01/16 01:18:22;;;;;;;26.15;13.03;;;;;;;-11.03;72.95;99788.22;1807992;77;21063;-67
2021/01/16 01:20:50;;;;;;;23.73;9.83;;;;;;;-10.98;72.95;99783.12;1807681;79;22413;-67
2021/01/16 01:23:19;;;;;;;16.02;8.10;;;;;;;-10.93;72.92;99786.50;1807799;78;21111;-67
2021/01/16 01:25:47;;;;;;;17.42;8.50;;;;;;;-10.92;72.86;99783.52;1808090;79;22064;-67
2021/01/16 01:28:16;;;;;;;21.60;12.00;;;;;;;-10.90;72.85;99787.79;1806932;79;21159;-67
2021/01/16 01:30:44;;;;;;;14.07;7.87;;;;;;;-10.89;72.83;99788.64;1807891;79;21408;-67
2021/01/16 01:33:16;;;;;;;20.97;10.70;;;;;;;-10.87;72.84;99790.75;1807904;78;21344;-67
2021/01/16 01:35:46;;;;;;;14.78;8.38;;;;;;;-10.85;72.77;99786.48;1802538;79;21037;-68
2021/01/16 01:38:16;;;;;;;15.80;8.00;;;;;;;-10.83;72.80;99780.52;1796412;79;21820;-69
2021/01/16 01:40:45;;;;;;;15.38;8.53;;;;;;;-10.81;72.75;99782.64;1808404;79;21154;-68
2021/01/16 01:43:13;;;;;;;11.70;6.37;;;;;;;-10.78;72.74;99783.08;1807604;79;21594;-67
2021/01/16 01:45:41;;;;;;;18.70;10.00;;;;;;;-10.78;72.70;99779.25;1808138;78;21039;-67
2021/01/16 01:48:10;;;;;;;21.15;10.53;;;;;;;-10.81;72.68;99777.96;1807129;79;21051;-69
2021/01/16 01:50:39;;;;;;;22.42;9.85;;;;;;;-10.81;72.64;99775.41;1807852;79;21826;-67
2021/01/16 01:53:07;;;;;;;18.12;8.73;;;;;;;-10.80;72.66;99777.14;1800234;79;21124;-67
2021/01/16 01:55:34;;;;;;;19.35;9.83;;;;;;;-10.80;72.61;99773.31;1750989;80;21186;-68
2021/01/16 01:58:04;;;;;;;17.00;8.70;;;;;;;-10.78;72.56;99771.17;1766559;79;21179;-67
2021/01/16 02:00:32;;;;;;;18.77;9.63;;;;;;;-10.76;72.51;99774.98;1806166;78;21163;-67
2021/01/16 02:03:00;;;;;;;18.77;9.28;;;;;;;-10.76;72.46;99778.38;1779450;79;22715;-67
2021/01/16 02:05:28;;;;;;;15.72;8.68;;;;;;;-10.75;72.50;99771.16;1744838;79;21088;-67
2021/01/16 02:08:01;;;;;;;16.62;9.18;;;;;;;-10.71;72.44;99779.23;1806582;79;21107;-67
2021/01/16 02:10:29;;;;;;;18.23;8.93;;;;;;;-10.70;72.33;99777.10;1802370;79;21599;-67
2021/01/16 02:12:57;;;;;;;19.00;9.88;;;;;;;-10.71;72.25;99779.23;1807516;78;21104;-67
2021/01/16 02:15:45;;;;;;;19.50;9.75;;;;;;;-10.72;72.19;99775.39;1732674;79;22070;-67
2021/01/16 02:18:33;;;;;;;19.17;9.30;;;;;;;-10.72;72.15;99776.23;1777970;79;21060;-67
2021/01/16 02:21:03;;;;;;;18.92;10.10;;;;;;;-10.70;72.22;99782.63;1754503;81;21111;-68
2021/01/16 02:23:50;;;;;;;22.90;10.45;;;;;;;-10.70;72.11;99778.81;1723322;81;21184;-68
2021/01/16 02:26:45;;;;;;;19.80;10.28;;;;;;;-10.70;72.00;99779.66;1705217;81;21366;-67
2021/01/16 02:29:12;;;;;;;;;;;;;;;-10.71;71.96;99779.23;1743239;81;22054;-68
2021/01/16 02:31:45;;;;;;;14.73;7.22;;;;;;;-10.72;71.87;99783.89;1736448;81;22522;-70
2021/01/16 02:34:22;;;;;;;19.95;9.28;;;;;;;-10.72;71.85;99790.69;1745859;81;21435;-67
2021/01/16 02:37:21;;;;;;;21.95;11.12;;;;;;;-10.76;71.81;99791.14;1755732;80;21073;-67
2021/01/16 02:40:16;;;;;;;18.92;8.88;;;;;;;-10.77;71.73;99797.53;1733800;81;21105;-67
2021/01/16 02:43:10;;;;;;;18.50;8.98;;;;;;;-10.78;71.77;99797.11;1751822;80;22060;-67
2021/01/16 02:45:42;;;;;;;11.73;6.08;;;;;;;-10.77;71.69;99796.25;1755421;81;21485;-67
2021/01/16 02:48:21;;;;;;;16.40;8.78;;;;;;;-10.77;71.58;99793.70;1741289;81;21366;-69
2021/01/16 02:50:51;;;;;;;13.13;6.83;;;;;;;-10.78;71.49;99795.83;1734015;81;21161;-68
2021/01/16 02:53:24;;;;;;;14.98;7.22;;;;;;;-10.77;71.40;99800.08;1753844;81;21128;-66
2021/01/16 02:55:51;;;;;;;8.98;5.00;;;;;;;-10.76;71.39;99803.89;1757931;80;22068;-66
2021/01/16 02:58:20;;;;;;;13.50;6.83;;;;;;;-10.75;71.34;99793.27;1758782;81;21072;-69
2021/01/16 03:00:49;;;;;;;17.07;8.45;;;;;;;-10.74;71.28;99789.86;1757566;81;21155;-67
2021/01/16 03:03:17;;;;;;;19.80;9.03;;;;;;;-10.70;71.20;99789.02;1758871;80;21189;-67
2021/01/16 03:05:45;;;;;;;14.35;8.05;;;;;;;-10.68;71.28;99788.57;1759257;80;21188;-66
2021/01/16 03:08:13;;;;;;;17.15;8.80;;;;;;;-10.65;71.17;99788.55;1748623;81;21881;-68
2021/01/16 03:10:43;;;;;;;14.63;7.80;;;;;;;-10.64;71.15;99788.97;1707446;81;21096;-68
2021/01/16 03:13:12;;;;;;;16.75;8.00;;;;;;;-10.63;71.10;99784.28;1758834;81;21056;-68
2021/01/16 03:15:40;;;;;;;19.27;8.23;;;;;;;-10.60;71.07;99797.06;1755471;80;21081;-68
2021/01/16 03:18:09;;;;;;;20.17;9.90;;;;;;;-10.58;70.94;99796.63;1755418;81;21163;-68
2021/01/16 03:20:39;;;;;;;20.43;9.93;;;;;;;-10.59;70.91;99788.98;1757119;81;21525;-68
2021/01/16 03:23:07;;;;;;;13.98;6.53;;;;;;;-10.60;70.94;99784.30;1757752;81;21158;-68
2021/01/16 03:25:36;;;;;;;19.30;10.25;;;;;;;-10.59;70.92;99790.25;1759076;81;21163;-67
2021/01/16 03:28:05;;;;;;;19.23;9.95;;;;;;;-10.61;70.88;99793.20;1759037;80;21180;-67
2021/01/16 03:30:34;;;;;;;18.23;8.85;;;;;;;-10.62;70.88;99789.81;1759316;80;21479;-67
2021/01/16 03:33:02;;;;;;;18.98;9.73;;;;;;;-10.61;70.94;99782.61;1759343;81;22074;-67
2021/01/16 03:35:32;;;;;;;9.75;5.15;;;;;;;-10.59;71.01;99784.72;1757444;81;22582;-67
2021/01/16 03:38:00;;;;;;;18.17;9.53;;;;;;;-10.55;71.04;99783.84;1759130;80;21057;-68
2021/01/16 03:40:28;;;;;;;17.37;8.90;;;;;;;-10.56;70.98;99796.18;1758459;80;21148;-66
2021/01/16 03:42:56;;;;;;;21.48;10.90;;;;;;;-10.57;70.98;99794.48;1759284;81;21119;-66
2021/01/16 03:45:24;;;;;;;20.82;11.30;;;;;;;-10.58;70.99;99788.97;1759016;81;22036;-67
2021/01/16 03:47:53;;;;;;;21.48;10.95;;;;;;;-10.56;71.07;99793.63;1757333;80;21071;-67
2021/01/16 03:50:24;;;;;;;21.37;11.75;;;;;;;-10.54;71.19;99793.19;1747344;81;21064;-67
2021/01/16 03:52:52;;;;;;;22.07;11.35;;;;;;;-10.52;71.13;99792.75;1758087;80;21087;-67
2021/01/16 03:55:20;;;;;;;24.37;12.05;;;;;;;-10.50;71.13;99792.34;1758035;80;21049;-67
2021/01/16 03:57:48;;;;;;;22.55;11.93;;;;;;;-10.45;71.11;99802.52;1753715;81;23124;-67
2021/01/16 04:00:17;;;;;;;22.37;10.80;;;;;;;-10.45;71.11;99802.09;1744295;81;21120;-67
2021/01/16 04:02:46;;;;;;;46.48;23.95;;;;;;;-10.44;71.12;99799.95;1754108;81;21134;-67
2021/01/16 04:05:14;;;;;;;41.85;24.10;;;;;;;-10.42;71.19;99808.91;1737076;81;21087;-67
2021/01/16 04:07:47;;;;;;;43.87;24.27;;;;;;;-10.41;71.25;99805.07;1754207;81;21464;-67
2021/01/16 04:10:15;;;;;;;25.90;14.73;;;;;;;-10.36;71.30;99810.57;1744362;81;22154;-67
2021/01/16 04:12:44;;;;;;;28.87;13.18;;;;;;;-10.34;71.26;99813.53;1755085;80;21060;-67
2021/01/16 04:15:14;;;;;;;28.40;14.13;;;;;;;-10.34;71.25;99812.69;1755347;81;21124;-67
2021/01/16 04:17:42;;;;;;;27.67;14.10;;;;;;;-10.32;71.30;99816.95;1755459;80;21056;-67
2021/01/16 04:20:11;;;;;;;25.62;13.45;;;;;;;-10.29;71.31;99804.16;1744484;81;21076;-67
2021/01/16 04:22:39;;;;;;;26.30;13.48;;;;;;;-10.26;71.39;99803.30;1751686;81;22110;-68
2021/01/16 04:25:07;;;;;;;31.57;13.98;;;;;;;-10.24;71.55;99792.64;1749433;81;21562;-68
2021/01/16 04:27:36;;;;;;;31.33;13.13;;;;;;;-10.21;71.58;99787.50;1755710;81;21188;-67
2021/01/16 04:30:05;;;;;;;90.12;42.48;;;;;;;-10.19;71.62;99796.00;1755288;81;21061;-67
2021/01/16 04:32:34;;;;;;;85.15;39.95;;;;;;;-10.19;71.67;99807.06;1755390;81;21060;-67
2021/01/16 04:35:03;;;;;;;58.30;28.50;;;;;;;-10.19;71.61;99797.28;1754640;80;22776;-68
2021/01/16 04:37:31;;;;;;;54.00;26.02;;;;;;;-10.19;71.74;99800.67;1755475;80;21064;-67
2021/01/16 04:39:59;;;;;;;180.45;88.75;;;;;;;-10.16;71.80;99798.53;1754835;81;21151;-67
2021/01/16 04:42:26;;;;;;;108.37;53.28;;;;;;;-10.15;71.74;99795.12;1726421;81;22370;-67
2021/01/16 04:44:54;;;;;;;74.85;36.20;;;;;;;-10.12;71.78;99793.84;1755482;80;21057;-67
2021/01/16 04:47:26;;;;;;;48.00;23.07;;;;;;;-10.11;71.85;99796.39;1755664;80;21895;-67
2021/01/16 04:49:53;;;;;;;59.20;30.72;;;;;;;-10.09;71.81;99789.98;1754965;81;21061;-66
2021/01/16 04:52:27;;;;;;;50.90;24.57;;;;;;;-10.08;71.81;99784.45;1755314;81;21345;-66
2021/01/16 04:54:55;;;;;;;40.33;21.45;;;;;;;-10.07;71.92;99779.33;1755438;81;21168;-67
2021/01/16 04:57:25;;;;;;;32.90;16.50;;;;;;;-10.05;71.96;99778.03;1725945;81;21064;-66
2021/01/16 04:59:54;;;;;;;33.45;16.40;;;;;;;-10.04;71.90;99785.69;1726570;81;22070;-66
2021/01/16 05:02:23;;;;;;;30.30;16.02;;;;;;;-10.03;71.87;99787.41;1753822;80;21195;-66
2021/01/16 05:04:52;;;;;;;34.58;17.65;;;;;;;-10.01;72.04;99796.34;1728255;81;21056;-69
2021/01/16 05:07:20;;;;;;;69.32;27.58;;;;;;;-10.00;72.13;99806.54;1725886;81;21086;-66
2021/01/16 05:09:49;;;;;;;47.40;20.97;;;;;;;-10.01;72.04;99812.51;1753130;80;21096;-66
2021/01/16 05:12:49;;;;;;;35.68;18.82;;;;;;;-10.03;71.96;99812.95;1727435;81;21902;-66
2021/01/16 05:15:23;;;;;;;33.38;16.50;;;;;;;-10.05;71.91;99809.53;1754537;81;21148;-66
2021/01/16 05:18:06;;;;;;;34.38;18.40;;;;;;;-10.07;71.92;99814.23;1752886;81;21504;-67
2021/01/16 05:20:35;;;;;;;53.90;22.30;;;;;;;-10.09;72.04;99811.70;1753901;81;22635;-66
2021/01/16 05:23:16;;;;;;;51.77;23.42;;;;;;;-10.07;72.06;99811.25;1754888;80;21053;-66
2021/01/16 05:25:50;;;;;;;37.30;17.60;;;;;;;-10.06;72.08;99812.95;1752605;81;23504;-66
2021/01/16 05:28:25;;;;;;;34.03;17.07;;;;;;;-10.04;72.15;99821.44;1739959;81;21539;-66
2021/01/16 05:30:56;;;;;;;43.00;20.25;;;;;;;-10.01;72.10;99818.89;1726002;81;21069;-64
2021/01/16 05:33:31;;;;;;;45.03;22.05;;;;;;;-9.99;72.09;99819.73;1742485;81;21631;-65
2021/01/16 05:36:03;;;;;;;43.42;21.82;;;;;;;-9.97;72.15;99820.56;1723650;81;21336;-68
2021/01/16 05:38:41;;;;;;;43.55;21.25;;;;;;;-9.95;72.20;99823.10;1755478;80;21886;-64
2021/01/16 05:41:11;;;;;;;34.85;17.82;;;;;;;-9.91;72.37;99819.69;1755507;80;21160;-64
2021/01/16 05:43:42;;;;;;;29.50;14.95;;;;;;;-9.89;72.42;99816.27;1755072;81;21105;-67
2021/01/16 05:46:13;;;;;;;26.15;14.05;;;;;;;-9.86;72.30;99826.89;1739563;81;21496;-67
2021/01/16 05:48:41;;;;;;;30.00;15.30;;;;;;;-9.87;72.24;99823.91;1755531;81;21349;-67
2021/01/16 05:51:08;;;;;;;27.02;14.65;;;;;;;-9.87;72.23;99826.04;1735476;81;24293;-66
2021/01/16 05:53:37;;;;;;;25.23;12.88;;;;;;;-9.85;72.33;99834.53;1749821;81;21166;-65
2021/01/16 05:56:07;;;;;;;30.12;14.47;;;;;;;-9.82;72.33;99831.98;1702602;82;21141;-66
2021/01/16 05:58:35;;;;;;;26.73;13.80;;;;;;;-9.79;72.38;99831.55;1702443;81;21192;-66
2021/01/16 06:01:06;;;;;;;29.75;15.50;;;;;;;-9.77;72.43;99832.38;1753729;81;21484;-68
2021/01/16 06:03:36;;;;;;;32.10;17.23;;;;;;;-9.77;72.44;99834.93;1755198;81;22054;-68
2021/01/16 06:06:11;;;;;;;31.37;16.20;;;;;;;-9.74;72.50;99842.59;1755371;81;21089;-68
2021/01/16 06:08:49;;;;;;;33.95;17.80;;;;;;;-9.72;72.57;99843.44;1751356;81;21130;-67
2021/01/16 06:11:19;;;;;;;24.90;12.45;;;;;;;-9.70;72.71;99842.56;1755589;81;21156;-68
2021/01/16 06:13:48;;;;;;;27.62;14.05;;;;;;;-9.66;72.89;99841.67;1754345;81;21132;-67
2021/01/16 06:16:18;;;;;;;30.00;16.90;;;;;;;-9.66;72.95;99840.82;1751554;80;22058;-67
2021/01/16 06:18:56;;;;;;;24.52;13.10;;;;;;;-9.67;73.11;99844.23;1734362;81;21548;-67
2021/01/16 06:21:26;;;;;;;31.60;16.52;;;;;;;-9.66;73.22;99857.00;1713736;81;21085;-67
2021/01/16 06:23:57;;;;;;;31.40;14.75;;;;;;;-9.65;73.30;99859.13;1727648;81;21091;-67
2021/01/16 06:26:27;;;;;;;33.45;17.57;;;;;;;-9.64;73.52;99855.74;1720726;81;21147;-67
2021/01/16 06:29:02;;;;;;;41.95;21.33;;;;;;;-9.59;73.56;99859.10;1755883;81;22162;-68
2021/01/16 06:31:33;;;;;;;33.15;18.85;;;;;;;-9.55;73.62;99858.24;1750393;81;21081;-67
2021/01/16 06:34:09;;;;;;;29.07;15.50;;;;;;;-9.52;73.71;99868.44;1754480;81;21555;-67
2021/01/16 06:36:38;;;;;;;24.87;13.68;;;;;;;-9.55;73.67;99872.30;1728314;83;21148;-67
2021/01/16 06:39:09;;;;;;;22.07;12.28;;;;;;;-9.63;73.62;99873.62;1727490;81;21137;-67
2021/01/16 06:41:38;;;;;;;19.32;11.05;;;;;;;-9.70;73.52;99886.44;1732231;81;21895;-67
2021/01/16 06:44:15;;;;;;;21.15;12.33;;;;;;;-9.90;73.07;99889.94;1704861;81;21459;-68
2021/01/16 06:46:48;;;;;;;19.98;12.18;;;;;;;-10.09;72.99;99899.81;1755878;81;21065;-67
2021/01/16 06:49:25;;;;;;;22.17;13.28;;;;;;;-10.24;73.04;99898.60;1755973;81;21135;-66
2021/01/16 06:52:01;;;;;;;17.25;9.83;;;;;;;-10.35;73.04;99883.31;1728698;81;21061;-67
2021/01/16 06:54:34;;;;;;;22.25;11.60;;;;;;;-10.41;73.22;99889.31;1755869;81;21978;-67
2021/01/16 06:57:11;;;;;;;19.25;10.68;;;;;;;-10.42;73.23;99892.72;1752995;81;21456;-66
2021/01/16 06:59:42;;;;;;;19.75;11.30;;;;;;;-10.48;73.10;99896.55;1723790;82;21163;-67
2021/01/16 07:02:33;;;;;;;19.57;10.60;;;;;;;-10.59;72.91;99891.05;1727690;82;21132;-68
2021/01/16 07:05:10;;;;;;;16.52;9.48;;;;;;;-10.69;72.96;99896.59;1692399;83;21480;-68
2021/01/16 07:07:40;;;;;;;18.12;9.50;;;;;;;-10.71;73.00;99896.59;1714977;82;22078;-68
2021/01/16 07:10:15;;;;;;;19.52;10.00;;;;;;;-10.75;72.95;99906.80;1748301;82;21128;-66
2021/01/16 07:12:49;;;;;;;17.65;9.68;;;;;;;-10.77;72.87;99905.95;1748294;82;21077;-66
2021/01/16 07:15:18;;;;;;;15.25;8.65;;;;;;;-10.79;72.90;99908.51;1747774;82;27564;-68
2021/01/16 07:17:47;;;;;;;14.13;7.67;;;;;;;-10.81;72.75;99909.34;1748102;82;21120;-68
2021/01/16 07:20:15;;;;;;;15.20;8.33;;;;;;;-10.81;72.59;99911.89;1748184;82;22146;-67
2021/01/16 07:22:44;;;;;;;14.60;8.73;;;;;;;-10.85;72.62;99919.13;1748174;82;22665;-68
2021/01/16 07:25:14;;;;;;;17.07;9.93;;;;;;;-10.82;72.67;99918.69;1747076;80;21065;-68
2021/01/16 07:27:43;;;;;;;13.98;8.70;;;;;;;-10.78;72.66;99926.78;1748081;80;21481;-69
2021/01/16 07:30:13;;;;;;;12.55;7.25;;;;;;;-10.76;72.57;99935.28;1748341;81;21496;-68
2021/01/16 07:32:48;;;;;;;15.95;8.10;;;;;;;-10.76;72.37;99935.71;1745967;80;22972;-68
2021/01/16 07:38:04;;;;;;;15.17;7.67;;;;;;;-10.67;72.29;99939.53;1888993;74;22704;-67
2021/01/16 07:40:33;;;;;;;16.87;8.53;;;;;;;-10.72;72.12;99938.67;1832874;77;21071;-69
2021/01/16 07:43:04;;;;;;;14.35;9.03;;;;;;;-10.73;72.12;99930.59;1825463;77;24268;-67
2021/01/16 07:45:33;;;;;;;15.48;8.53;;;;;;;-10.76;71.85;99942.09;1843280;77;21546;-68
2021/01/16 07:48:06;;;;;;;15.23;8.35;;;;;;;-10.78;71.69;99957.83;1830057;77;21103;-67
2021/01/16 07:50:38;;;;;;;12.88;7.22;;;;;;;-10.81;71.74;99964.19;1827250;77;21479;-67
2021/01/16 07:53:08;;;;;;;12.65;7.10;;;;;;;-10.75;71.80;99962.49;1816826;77;21463;-68
2021/01/16 07:55:41;;;;;;;10.72;5.65;;;;;;;-10.70;71.78;99962.51;1819158;77;22935;-65
2021/01/16 07:58:27;;;;;;;16.55;8.40;;;;;;;-10.65;71.68;99967.59;1842405;77;21123;-65
2021/01/16 08:01:19;;;;;;;14.25;7.67;;;;;;;-10.72;71.15;99963.76;1816639;77;21079;-65
2021/01/16 08:04:16;;;;;;;12.55;6.55;;;;;;;-10.82;70.99;99959.94;1826561;77;21056;-65
2021/01/16 08:07:09;;;;;;;19.62;10.40;;;;;;;-10.89;70.87;99968.03;1828199;77;21356;-65
2021/01/16 08:09:58;;;;;;;15.10;7.30;;;;;;;-10.92;70.92;99972.26;1816385;77;21886;-64
2021/01/16 08:12:27;;;;;;;14.25;7.25;;;;;;;-10.90;70.88;99981.64;1819611;77;21067;-64
2021/01/16 08:14:55;;;;;;;20.68;10.03;;;;;;;-10.92;70.86;99979.48;1823431;77;21079;-65
2021/01/16 08:17:29;;;;;;;14.47;8.10;;;;;;;-10.87;70.88;99981.63;1797250;78;21120;-65
2021/01/16 08:20:19;;;;;;;14.87;7.85;;;;;;;-10.81;70.97;99987.14;1794838;78;21453;-65
2021/01/16 08:22:53;;;;;;;16.48;9.23;;;;;;;-10.76;70.93;99985.03;1799940;78;22058;-65
2021/01/16 08:25:27;;;;;;;11.63;5.83;;;;;;;-10.71;70.85;99991.40;1812869;78;21143;-66
2021/01/16 08:27:57;;;;;;;9.48;5.85;;;;;;;-10.66;70.61;99979.51;1791430;78;21074;-66
2021/01/16 08:30:29;;;;;;;9.98;5.55;;;;;;;-10.73;70.33;99991.83;1795003;78;21486;-66
2021/01/16 08:33:07;;;;;;;11.63;6.58;;;;;;;-10.87;70.04;99994.81;1816041;79;21032;-66
2021/01/16 08:35:44;;;;;;;11.08;6.30;;;;;;;-10.98;70.01;99989.27;1811681;78;22114;-66
2021/01/16 08:38:22;;;;;;;8.73;5.05;;;;;;;-11.02;70.06;99991.80;1816316;79;21108;-65
2021/01/16 08:41:06;;;;;;;12.07;6.58;;;;;;;-10.98;70.20;99998.63;1813581;78;21126;-65
2021/01/16 08:43:44;;;;;;;13.50;6.72;;;;;;;-10.94;70.08;99995.22;1791355;79;21051;-65
2021/01/16 08:46:18;;;;;;;13.03;6.87;;;;;;;-10.85;70.26;99989.28;1805496;78;21166;-65
2021/01/16 08:49:01;;;;;;;;;;;;;;;-10.71;70.38;99983.74;1802723;79;21833;-65
2021/01/16 08:51:34;;;;;;;13.48;7.85;;;;;;;-10.62;69.84;99990.12;1804613;79;20438;-67
2021/01/16 08:54:10;;;;;;;21.37;10.85;;;;;;;-10.60;69.81;99993.98;1782568;80;21147;-65
2021/01/16 08:56:39;;;;;;;15.05;8.33;;;;;;;-10.56;69.59;99995.23;1792145;79;21162;-65
2021/01/16 08:59:33;;;;;;;15.05;9.63;;;;;;;-10.61;69.11;99990.97;1808082;79;21201;-67
2021/01/16 09:02:14;;;;;;;13.45;7.60;;;;;;;-10.64;69.20;99991.83;1790906;80;22043;-67
2021/01/16 09:04:44;;;;;;;15.20;7.35;;;;;;;-10.73;68.54;100001.61;1774202;80;21157;-66
2021/01/16 09:07:20;;;;;;;14.45;8.23;;;;;;;-10.84;68.56;99995.66;1795291;79;21166;-66
2021/01/16 09:09:58;;;;;;;16.17;8.58;;;;;;;-10.84;68.62;99990.55;1814647;79;21178;-66
2021/01/16 09:12:37;;;;;;;14.18;7.05;;;;;;;-10.78;68.57;99995.67;1814742;79;21158;-66
2021/01/16 09:15:39;;;;;;;19.20;10.20;;;;;;;-10.78;68.49;99996.09;1812499;79;22006;-68
2021/01/16 09:18:12;;;;;;;16.62;9.10;;;;;;;-10.76;68.30;99992.69;1810626;77;21186;-69
2021/01/16 09:20:44;;;;;;;18.05;9.38;;;;;;;-10.70;68.32;99992.70;1785721;79;21510;-69
2021/01/16 09:23:23;;;;;;;37.70;16.07;;;;;;;-10.63;68.06;99984.59;1793026;79;21198;-68
2021/01/16 09:25:57;;;;;;;20.50;9.63;;;;;;;-10.54;67.97;99988.85;1801721;79;21155;-66
2021/01/16 09:28:43;;;;;;;;;;;;;;;-10.43;67.81;99988.42;1783625;79;22109;-65
2021/01/16 09:31:39;;;;;;;27.98;13.03;;;;;;;-10.52;67.47;99994.37;1780351;79;20399;-66
2021/01/16 09:34:13;;;;;;;39.35;13.32;;;;;;;-10.53;67.60;99991.83;1807423;79;21182;-67
2021/01/16 09:37:00;;;;;;;23.12;10.18;;;;;;;-10.47;67.10;99990.13;1811260;78;21144;-69
2021/01/16 09:39:32;;;;;;;16.97;8.80;;;;;;;-10.50;66.80;99988.87;1815292;79;21175;-67
2021/01/16 09:42:09;;;;;;;24.65;13.03;;;;;;;-10.58;66.54;100000.78;1785924;79;22033;-67
2021/01/16 09:44:45;;;;;;;25.77;12.40;;;;;;;-10.64;66.70;100002.04;1807634;79;21128;-68
2021/01/16 09:47:31;;;;;;;20.50;10.72;;;;;;;-10.69;66.86;99995.67;1789432;78;21170;-68
2021/01/16 09:50:11;;;;;;;19.82;10.93;;;;;;;-10.62;67.16;99996.93;1804716;79;21169;-67
2021/01/16 09:52:53;;;;;;;14.87;8.00;;;;;;;-10.51;67.15;99996.11;1769614;80;21158;-67
2021/01/16 09:55:31;;;;;;;11.88;6.33;;;;;;;-10.40;67.14;99994.82;1788029;79;21878;-67
2021/01/16 09:57:59;;;;;;;14.45;6.70;;;;;;;-10.43;65.54;99998.20;1806526;78;21151;-70
2021/01/16 10:00:33;;;;;;;17.62;8.23;;;;;;;-10.64;63.93;99999.48;1813535;79;21056;-66
2021/01/16 10:03:08;;;;;;;19.45;9.83;;;;;;;-10.75;63.18;100004.59;1810537;78;21201;-68
2021/01/16 10:05:41;;;;;;;14.33;7.72;;;;;;;-10.89;62.69;100002.47;1801124;79;21064;-64
2021/01/16 10:08:09;;;;;;;13.58;7.08;;;;;;;-10.97;62.64;99997.35;1786248;79;22050;-64
2021/01/16 10:10:44;;;;;;;17.80;8.23;;;;;;;-11.03;61.92;100009.23;1797804;78;21578;-65
2021/01/16 10:13:14;;;;;;;15.45;7.45;;;;;;;-11.09;61.90;100001.16;1809971;78;21150;-67
2021/01/16 10:15:50;;;;;;;15.72;9.03;;;;;;;-11.06;61.43;100002.44;1800086;79;21490;-67
2021/01/16 10:18:19;;;;;;;12.43;5.70;;;;;;;-10.96;61.80;99991.83;1815731;77;21063;-67
2021/01/16 10:21:12;;;;;;;13.00;6.53;;;;;;;-10.78;61.59;100005.03;1814082;79;22944;-68
2021/01/16 10:23:43;;;;;;;13.88;6.65;;;;;;;-10.72;61.24;99995.66;1785622;79;21115;-67
2021/01/16 10:26:18;;;;;;;16.42;8.40;;;;;;;-10.73;60.80;100005.86;1815315;78;21123;-65
2021/01/16 10:28:55;;;;;;;21.02;9.35;;;;;;;-10.78;60.67;100013.95;1798469;78;21174;-65
2021/01/16 10:31:24;;;;;;;15.08;8.33;;;;;;;-10.85;60.19;100010.96;1802758;78;21102;-65
2021/01/16 10:33:53;;;;;;;19.17;9.78;;;;;;;-10.89;59.89;100010.12;1764703;79;22048;-65
2021/01/16 10:36:21;;;;;;;23.80;9.68;;;;;;;-10.90;60.07;100007.14;1796998;78;21126;-66
2021/01/16 10:38:52;;;;;;;21.40;8.93;;;;;;;-10.91;59.90;99997.77;1712030;82;21156;-66
2021/01/16 10:41:34;;;;;;;15.20;7.25;;;;;;;-10.91;59.19;100019.87;1746378;81;21128;-66
2021/01/16 10:44:10;;;;;;;35.65;14.58;;;;;;;-10.91;57.97;100009.67;1773555;80;21205;-67
2021/01/16 10:46:42;;;;;;;16.75;8.38;;;;;;;-10.90;58.87;100022.84;1759642;80;22082;-67
2021/01/16 10:49:18;;;;;;;16.52;7.53;;;;;;;-10.82;57.87;100004.58;1760496;79;21120;-65
2021/01/16 10:51:59;;;;;;;12.07;5.78;;;;;;;-10.81;57.46;100001.17;1768302;80;21177;-66
2021/01/16 10:54:27;;;;;;;14.90;7.78;;;;;;;-10.72;57.05;99998.63;1700342;82;21178;-64
2021/01/16 10:57:06;;;;;;;20.30;9.70;;;;;;;-10.66;57.10;100001.62;1736595;81;21065;-64
2021/01/16 11:05:25;;;;;;;20.27;9.40;;;;;;;-10.15;56.69;99994.30;1771986;80;21073;-64
2021/01/16 11:07:58;;;;;;;16.77;7.80;;;;;;;-9.91;55.62;99995.97;1770131;80;22964;-65
2021/01/16 11:10:32;;;;;;;10.88;4.78;;;;;;;-9.94;54.43;100002.34;1733924;80;21097;-67
2021/01/16 11:13:29;;;;;;;17.23;8.15;;;;;;;-10.10;53.37;100013.05;1775233;80;21220;-67
2021/01/16 11:16:12;;;;;;;13.18;5.58;;;;;;;-10.17;53.48;100016.45;1759778;80;21484;-68
2021/01/16 11:18:43;;;;;;;16.35;7.67;;;;;;;-10.22;52.31;100010.55;1727415;81;21161;-66
2021/01/16 11:21:11;;;;;;;22.82;9.98;;;;;;;-10.17;53.96;100015.17;1696301;84;22074;-66
2021/01/16 11:24:00;;;;;;;21.00;10.00;;;;;;;-10.08;52.97;100011.33;1712398;81;21180;-67
2021/01/16 11:26:28;;;;;;;21.97;9.75;;;;;;;-10.02;53.63;100010.48;1726670;82;21504;-66
2021/01/16 11:28:57;;;;;;;55.40;17.70;;;;;;;-10.03;53.09;100009.63;1698945;83;21204;-66
2021/01/16 11:31:36;;;;;;;57.93;17.20;;;;;;;-10.03;53.68;100012.19;1725949;81;21082;-67
2021/01/16 11:37:04;;;;;;;24.43;8.30;;;;;;;-9.70;54.35;100006.55;1873475;75;23144;-66
2021/01/16 11:39:47;;;;;;;30.17;10.82;;;;;;;-9.67;53.65;100012.48;1830426;78;21114;-70
2021/01/16 11:42:16;;;;;;;26.82;8.98;;;;;;;-9.87;53.14;100027.03;1806714;79;22698;-68
2021/01/16 11:44:56;;;;;;;42.25;11.68;;;;;;;-10.03;53.13;100028.79;1806808;79;21166;-72
2021/01/16 11:47:26;;;;;;;66.12;15.90;;;;;;;-10.24;53.24;100023.72;1809005;78;21495;-68
2021/01/16 11:49:55;;;;;;;52.70;14.25;;;;;;;-10.35;54.07;100020.33;1807385;78;21155;-72
2021/01/16 11:52:26;;;;;;;17.50;7.83;;;;;;;-10.33;54.06;100011.81;1807297;79;21127;-69